createdAt,value
2023-04-11T00:02:55.177Z,69.66
2023-04-11T00:08:23.378Z,69.46
2023-04-11T00:13:51.348Z,69.81
2023-04-11T00:19:23.510Z,70.18
2023-04-11T00:24:53.321Z,70.05
2023-04-11T00:30:20.904Z,69.55
2023-04-11T00:35:47.888Z,69.54
2023-04-11T00:41:14.814Z,69.58
2023-04-11T00:46:46.658Z,68.85
2023-04-11T00:52:14.343Z,68.98
2023-04-11T00:57:43.081Z,69.69
2023-04-11T01:03:10.537Z,69.96
2023-04-11T01:08:39.239Z,69.98
2023-04-11T01:14:07.490Z,69.47
2023-04-11T01:19:35.095Z,71.48
2023-04-11T01:25:02.393Z,71.09
2023-04-11T01:30:30.060Z,70.70
2023-04-11T01:35:57.294Z,70.21
2023-04-11T01:41:26.997Z,70.23
2023-04-11T01:46:54.214Z,69.65
2023-04-11T01:52:22.100Z,68.98
2023-04-11T01:57:49.310Z,70.04
2023-04-11T02:03:21.384Z,70.46
2023-04-11T02:08:49.455Z,70.47
2023-04-11T02:14:20.595Z,69.70
2023-04-11T02:19:48.490Z,70.10
2023-04-11T02:25:16.349Z,70.67
2023-04-11T02:30:43.213Z,70.47
2023-04-11T02:36:12.772Z,70.60
2023-04-11T02:41:41.041Z,70.40
2023-04-11T02:47:08.803Z,70.20
2023-04-11T02:52:39.624Z,69.72
2023-04-11T02:58:07.560Z,69.86
2023-04-11T03:03:35.533Z,69.63
2023-04-11T03:09:04.305Z,70.29
2023-04-11T03:14:33.068Z,69.91
2023-04-11T03:20:01.196Z,69.78
2023-04-11T03:25:29.932Z,70.21
2023-04-11T03:30:57.289Z,70.33
2023-04-11T03:36:28.899Z,69.77
2023-04-11T03:42:02.562Z,69.53
2023-04-11T03:47:31.900Z,70.37
2023-04-11T03:52:59.364Z,68.95
2023-04-11T03:58:28.601Z,69.94
2023-04-11T04:03:56.757Z,69.70
2023-04-11T04:09:24.726Z,69.95
2023-04-11T04:14:55.580Z,69.87
2023-04-11T04:20:23.678Z,68.96
2023-04-11T04:25:58.244Z,68.61
2023-04-11T04:31:33.925Z,68.51
2023-04-11T04:37:06.846Z,68.15
2023-04-11T04:42:44.346Z,67.41
2023-04-11T04:48:14.716Z,67.25
2023-04-11T04:53:42.922Z,67.72
2023-04-11T04:59:14.972Z,66.42
2023-04-11T05:04:48.878Z,65.60
2023-04-11T05:10:16.858Z,65.36
2023-04-11T05:15:49.596Z,64.14
2023-04-11T05:21:16.722Z,64.46
2023-04-11T05:26:47.114Z,64.85
2023-04-11T05:32:18.583Z,65.74
2023-04-11T05:37:46.299Z,64.01
2023-04-11T05:43:15.475Z,65.69
2023-04-11T05:48:43.052Z,65.22
2023-04-11T05:54:11.159Z,64.48
2023-04-11T05:59:38.939Z,64.48
2023-04-11T06:05:06.553Z,63.72
2023-04-11T06:10:34.843Z,62.62
2023-04-11T06:16:02.814Z,61.88
2023-04-11T06:21:32.133Z,61.66
2023-04-11T06:27:00.040Z,62.81
2023-04-11T06:32:28.454Z,62.27
2023-04-11T06:37:56.189Z,60.74
2023-04-11T06:43:25.510Z,60.27
2023-04-11T06:48:53.003Z,59.81
2023-04-11T06:54:21.356Z,59.91
2023-04-11T06:59:48.979Z,59.89
2023-04-11T07:05:16.454Z,60.16
2023-04-11T07:10:44.264Z,60.22
2023-04-11T07:16:12.245Z,60.38
2023-04-11T07:21:40.041Z,59.42
2023-04-11T07:27:07.204Z,58.35
2023-04-11T07:32:34.888Z,58.79
2023-04-11T07:38:02.368Z,56.83
2023-04-11T07:43:30.673Z,57.55
2023-04-11T07:48:58.112Z,57.24
2023-04-11T07:54:28.761Z,57.58
2023-04-11T07:59:57.418Z,55.09
2023-04-11T08:05:26.069Z,53.45
2023-04-11T08:10:53.106Z,51.46
2023-04-11T08:16:20.371Z,51.40
2023-04-11T08:21:48.552Z,50.02
2023-04-11T08:27:16.399Z,50.24
2023-04-11T08:32:44.737Z,50.18
2023-04-11T08:38:12.542Z,48.09
2023-04-11T08:43:40.602Z,48.77
2023-04-11T08:49:08.732Z,46.86
2023-04-11T08:54:36.321Z,46.73
2023-04-11T09:00:15.325Z,46.04
2023-04-11T09:05:44.816Z,46.28
2023-04-11T09:11:12.403Z,44.96
2023-04-11T09:16:54.550Z,42.69
2023-04-11T09:22:36.602Z,41.02
2023-04-11T09:28:10.483Z,40.64
2023-04-11T09:33:37.302Z,39.20
2023-04-11T09:39:20.636Z,40.33
2023-04-11T09:44:48.472Z,37.23
2023-04-11T09:50:16.233Z,35.41
2023-04-11T09:55:43.219Z,35.10
2023-04-11T10:01:10.950Z,36.65
2023-04-11T10:07:02.361Z,36.93
2023-04-11T10:12:34.143Z,36.13
2023-04-11T10:18:11.939Z,34.39
2023-04-11T10:24:15.878Z,35.70
2023-04-11T10:29:50.730Z,36.15
2023-04-11T10:35:18.155Z,36.02
2023-04-11T10:41:17.491Z,35.70
2023-04-11T10:46:49.973Z,34.53
2023-04-11T10:52:24.028Z,34.21
2023-04-11T10:58:20.052Z,31.67
2023-04-11T11:03:57.162Z,32.97
2023-04-11T11:09:25.901Z,35.00
2023-04-11T11:14:54.765Z,36.43
2023-04-11T11:20:22.014Z,41.86
2023-04-11T11:25:57.400Z,46.64
2023-04-11T11:31:35.274Z,48.64
2023-04-11T11:37:07.346Z,53.06
2023-04-11T11:42:37.017Z,54.34
2023-04-11T11:48:05.028Z,56.70
2023-04-11T11:53:33.132Z,57.98
2023-04-11T11:59:00.995Z,57.92
2023-04-11T12:04:31.222Z,58.00
2023-04-11T12:10:22.813Z,60.77
2023-04-11T12:15:55.852Z,61.03
2023-04-11T12:21:22.693Z,62.00
2023-04-11T12:27:05.649Z,61.49
2023-04-11T12:32:35.379Z,62.14
2023-04-11T12:38:04.511Z,62.44
2023-04-11T12:43:32.476Z,62.77
2023-04-11T12:49:00.136Z,62.56
2023-04-11T12:54:28.180Z,62.05
2023-04-11T12:59:56.283Z,59.08
2023-04-11T13:05:24.570Z,57.75
2023-04-11T13:10:53.449Z,56.97
2023-04-11T13:16:21.566Z,57.04
2023-04-11T13:21:49.509Z,54.99
2023-04-11T13:27:17.484Z,53.82
2023-04-11T13:32:45.106Z,52.56
2023-04-11T13:38:12.973Z,51.51
2023-04-11T13:43:39.901Z,48.38
2023-04-11T13:49:07.188Z,46.73
2023-04-11T13:54:33.918Z,46.49
2023-04-11T14:00:00.979Z,46.35
2023-04-11T14:05:28.877Z,45.68
2023-04-11T14:10:56.652Z,45.97
2023-04-11T14:16:24.049Z,47.22
2023-04-11T14:21:52.238Z,48.81
2023-04-11T14:27:19.248Z,48.20
2023-04-11T14:32:46.329Z,48.57
2023-04-11T14:38:16.091Z,49.24
2023-04-11T14:43:43.266Z,49.79
2023-04-11T14:49:10.198Z,50.46
2023-04-11T14:54:37.607Z,50.35
2023-04-11T15:00:06.771Z,50.36
2023-04-11T15:05:34.422Z,48.91
2023-04-11T15:11:03.551Z,48.30
2023-04-11T15:16:32.320Z,47.30
2023-04-11T15:21:59.348Z,47.18
2023-04-11T15:27:27.887Z,46.74
2023-04-11T15:32:55.380Z,46.91
2023-04-11T15:38:23.278Z,47.12
2023-04-11T15:43:50.789Z,49.30
2023-04-11T15:49:18.626Z,50.44
2023-04-11T15:54:46.684Z,50.64
2023-04-11T16:00:15.906Z,50.94
2023-04-11T16:05:44.373Z,49.89
2023-04-11T16:11:11.778Z,49.16
2023-04-11T16:16:39.516Z,48.38
2023-04-11T16:22:06.502Z,47.35
2023-04-11T16:27:34.155Z,47.57
2023-04-11T16:33:02.061Z,48.25
2023-04-11T16:38:29.652Z,48.85
2023-04-11T16:43:56.839Z,49.55
2023-04-11T16:49:25.267Z,50.12
2023-04-11T16:54:53.032Z,49.98
2023-04-11T17:00:20.970Z,50.15
2023-04-11T17:05:48.663Z,50.93
2023-04-11T17:11:15.882Z,51.92
2023-04-11T17:16:44.034Z,52.78
2023-04-11T17:22:11.900Z,53.86
2023-04-11T17:27:41.631Z,54.22
2023-04-11T17:33:09.973Z,55.11
2023-04-11T17:38:39.659Z,56.70
2023-04-11T17:44:06.910Z,57.50
2023-04-11T17:49:34.740Z,59.00
2023-04-11T17:55:03.711Z,59.29
2023-04-11T18:00:31.929Z,58.49
2023-04-11T18:06:01.449Z,60.22
2023-04-11T18:11:28.895Z,58.88
2023-04-11T18:16:56.171Z,58.92
2023-04-11T18:22:23.891Z,58.95
2023-04-11T18:27:51.921Z,59.86
2023-04-11T18:33:20.729Z,61.70
2023-04-11T18:38:49.392Z,62.07
2023-04-11T18:44:17.205Z,61.79
2023-04-11T18:49:44.960Z,60.75
2023-04-11T18:55:12.189Z,60.47
2023-04-11T19:00:40.216Z,60.31
2023-04-11T19:06:08.780Z,60.77
2023-04-11T19:11:38.383Z,61.39
2023-04-11T19:17:06.724Z,60.83
2023-04-11T19:22:36.064Z,60.96
2023-04-11T19:28:03.272Z,61.36
2023-04-11T19:33:31.836Z,61.42
2023-04-11T19:38:58.913Z,62.62
2023-04-11T19:44:26.188Z,62.74
2023-04-11T19:49:54.533Z,63.04
2023-04-11T19:55:22.710Z,62.92
2023-04-11T20:00:50.241Z,63.50
2023-04-11T20:06:18.869Z,64.16
2023-04-11T20:11:47.980Z,64.79
2023-04-11T20:17:16.070Z,67.07
2023-04-11T20:22:45.044Z,66.04
2023-04-11T20:28:12.802Z,65.21
2023-04-11T20:33:40.309Z,66.10
2023-04-11T20:39:08.225Z,65.68
2023-04-11T20:44:37.132Z,66.60
2023-04-11T20:50:10.549Z,66.90
2023-04-11T20:55:38.227Z,67.93
2023-04-11T21:01:05.685Z,68.15
2023-04-11T21:06:33.818Z,68.43
2023-04-11T21:12:02.532Z,68.69
2023-04-11T21:17:34.849Z,68.33
2023-04-11T21:23:03.154Z,68.68
2023-04-11T21:28:31.179Z,68.76
2023-04-11T21:33:58.747Z,69.71
2023-04-11T21:39:26.560Z,69.19
2023-04-11T21:44:54.665Z,69.30
2023-04-11T21:50:22.669Z,69.96
2023-04-11T21:55:50.640Z,69.61
2023-04-11T22:01:20.962Z,69.63
2023-04-11T22:06:48.640Z,70.02
2023-04-11T22:12:18.078Z,70.06
2023-04-11T22:17:51.270Z,69.95
2023-04-11T22:23:18.551Z,70.62
2023-04-11T22:28:46.628Z,69.62
2023-04-11T22:34:14.404Z,69.82
2023-04-11T22:39:41.747Z,70.66
2023-04-11T22:45:10.270Z,70.47
2023-04-11T22:50:37.524Z,70.51
2023-04-11T22:56:06.069Z,70.89
2023-04-11T23:01:33.789Z,70.46
2023-04-11T23:07:02.070Z,70.67
2023-04-11T23:12:29.937Z,70.64
2023-04-11T23:17:58.609Z,70.58
2023-04-11T23:23:25.537Z,70.24
2023-04-11T23:28:53.554Z,70.12
2023-04-11T23:34:21.210Z,70.95
2023-04-11T23:39:49.263Z,70.06
2023-04-11T23:45:20.771Z,69.74
2023-04-11T23:50:49.077Z,70.53
2023-04-11T23:56:17.054Z,69.70
